sensor_id;sensor_type;location;lat;lon;timestamp;P1;durP1;ratioP1;P2;durP2;ratioP2
55758;SDS011;41678;52.126;20.664;2022-11-20T00:01:26;18.07;;;8.87;;
55758;SDS011;41678;52.126;20.664;2022-11-20T00:06:46;28.88;;;11.82;;
55758;SDS011;41678;52.126;20.664;2022-11-20T00:12:06;20.08;;;10.82;;
55758;SDS011;41678;52.126;20.664;2022-11-20T00:17:25;27.65;;;10.88;;
55758;SDS011;41678;52.126;20.664;2022-11-20T00:22:45;30.50;;;10.95;;
55758;SDS011;41678;52.126;20.664;2022-11-20T00:28:05;27.20;;;11.35;;
55758;SDS011;41678;52.126;20.664;2022-11-20T00:33:24;24.70;;;9.38;;
55758;SDS011;41678;52.126;20.664;2022-11-20T00:38:44;35.58;;;11.88;;
55758;SDS011;41678;52.126;20.664;2022-11-20T00:44:04;44.17;;;12.00;;
55758;SDS011;41678;52.126;20.664;2022-11-20T00:49:24;24.02;;;11.40;;
55758;SDS011;41678;52.126;20.664;2022-11-20T00:54:43;24.85;;;9.05;;
55758;SDS011;41678;52.126;20.664;2022-11-20T01:00:03;19.80;;;10.50;;
55758;SDS011;41678;52.126;20.664;2022-11-20T01:05:23;30.95;;;12.23;;
55758;SDS011;41678;52.126;20.664;2022-11-20T01:10:43;24.77;;;11.68;;
55758;SDS011;41678;52.126;20.664;2022-11-20T01:21:28;39.88;;;11.35;;
55758;SDS011;41678;52.126;20.664;2022-11-20T01:26:52;23.85;;;10.73;;
55758;SDS011;41678;52.126;20.664;2022-11-20T01:32:12;26.55;;;10.02;;
55758;SDS011;41678;52.126;20.664;2022-11-20T01:37:32;22.98;;;9.13;;
55758;SDS011;41678;52.126;20.664;2022-11-20T01:42:53;29.73;;;9.15;;
55758;SDS011;41678;52.126;20.664;2022-11-20T01:48:54;23.20;;;8.73;;
55758;SDS011;41678;52.126;20.664;2022-11-20T01:54:23;25.75;;;8.27;;
55758;SDS011;41678;52.126;20.664;2022-11-20T01:59:49;26.92;;;6.05;;
55758;SDS011;41678;52.126;20.664;2022-11-20T02:05:20;18.30;;;7.35;;
55758;SDS011;41678;52.126;20.664;2022-11-20T02:10:46;20.70;;;7.33;;
55758;SDS011;41678;52.126;20.664;2022-11-20T02:16:08;21.70;;;8.40;;
55758;SDS011;41678;52.126;20.664;2022-11-20T02:27:03;14.15;;;9.32;;
55758;SDS011;41678;52.126;20.664;2022-11-20T02:32:26;25.65;;;8.60;;
55758;SDS011;41678;52.126;20.664;2022-11-20T02:37:48;13.60;;;6.35;;
55758;SDS011;41678;52.126;20.664;2022-11-20T02:43:10;26.67;;;8.52;;
55758;SDS011;41678;52.126;20.664;2022-11-20T02:48:29;9.93;;;5.55;;
55758;SDS011;41678;52.126;20.664;2022-11-20T02:53:49;15.68;;;7.10;;
55758;SDS011;41678;52.126;20.664;2022-11-20T02:59:09;22.80;;;8.70;;
55758;SDS011;41678;52.126;20.664;2022-11-20T03:04:29;29.08;;;9.45;;
55758;SDS011;41678;52.126;20.664;2022-11-20T03:09:48;15.80;;;8.55;;
55758;SDS011;41678;52.126;20.664;2022-11-20T03:15:08;27.10;;;9.18;;
55758;SDS011;41678;52.126;20.664;2022-11-20T03:20:28;18.92;;;10.68;;
55758;SDS011;41678;52.126;20.664;2022-11-20T03:25:48;19.88;;;8.90;;
55758;SDS011;41678;52.126;20.664;2022-11-20T03:31:12;29.92;;;9.88;;
55758;SDS011;41678;52.126;20.664;2022-11-20T03:36:32;11.52;;;5.60;;
55758;SDS011;41678;52.126;20.664;2022-11-20T03:41:52;34.15;;;10.55;;
55758;SDS011;41678;52.126;20.664;2022-11-20T03:47:11;24.88;;;10.98;;
55758;SDS011;41678;52.126;20.664;2022-11-20T03:52:31;17.30;;;9.43;;
55758;SDS011;41678;52.126;20.664;2022-11-20T03:57:50;24.83;;;10.15;;
55758;SDS011;41678;52.126;20.664;2022-11-20T04:03:10;21.30;;;10.27;;
55758;SDS011;41678;52.126;20.664;2022-11-20T04:08:30;31.80;;;12.38;;
55758;SDS011;41678;52.126;20.664;2022-11-20T04:13:51;32.67;;;10.13;;
55758;SDS011;41678;52.126;20.664;2022-11-20T04:24:32;23.30;;;8.00;;
55758;SDS011;41678;52.126;20.664;2022-11-20T04:29:52;25.05;;;9.05;;
55758;SDS011;41678;52.126;20.664;2022-11-20T04:35:11;19.33;;;10.90;;
55758;SDS011;41678;52.126;20.664;2022-11-20T04:40:31;32.85;;;9.98;;
55758;SDS011;41678;52.126;20.664;2022-11-20T04:45:54;27.60;;;11.93;;
55758;SDS011;41678;52.126;20.664;2022-11-20T04:51:14;29.05;;;11.60;;
55758;SDS011;41678;52.126;20.664;2022-11-20T04:56:34;27.15;;;12.27;;
55758;SDS011;41678;52.126;20.664;2022-11-20T05:01:54;45.63;;;13.93;;
55758;SDS011;41678;52.126;20.664;2022-11-20T05:07:13;19.23;;;9.63;;
55758;SDS011;41678;52.126;20.664;2022-11-20T05:12:33;24.58;;;13.40;;
55758;SDS011;41678;52.126;20.664;2022-11-20T05:17:52;24.88;;;12.32;;
55758;SDS011;41678;52.126;20.664;2022-11-20T05:23:12;18.88;;;8.95;;
55758;SDS011;41678;52.126;20.664;2022-11-20T05:28:32;26.85;;;11.73;;
55758;SDS011;41678;52.126;20.664;2022-11-20T05:33:52;31.05;;;13.38;;
55758;SDS011;41678;52.126;20.664;2022-11-20T05:39:13;37.10;;;14.43;;
55758;SDS011;41678;52.126;20.664;2022-11-20T05:44:32;27.90;;;13.52;;
55758;SDS011;41678;52.126;20.664;2022-11-20T05:49:52;27.33;;;13.60;;
55758;SDS011;41678;52.126;20.664;2022-11-20T05:55:12;36.72;;;12.95;;
55758;SDS011;41678;52.126;20.664;2022-11-20T06:00:31;30.27;;;14.75;;
55758;SDS011;41678;52.126;20.664;2022-11-20T06:05:51;30.38;;;10.63;;
55758;SDS011;41678;52.126;20.664;2022-11-20T06:11:12;32.25;;;13.60;;
55758;SDS011;41678;52.126;20.664;2022-11-20T06:16:32;34.80;;;12.93;;
55758;SDS011;41678;52.126;20.664;2022-11-20T06:21:52;34.90;;;13.30;;
55758;SDS011;41678;52.126;20.664;2022-11-20T06:27:12;19.58;;;11.57;;
55758;SDS011;41678;52.126;20.664;2022-11-20T06:32:32;28.27;;;11.35;;
55758;SDS011;41678;52.126;20.664;2022-11-20T06:37:52;25.02;;;11.43;;
55758;SDS011;41678;52.126;20.664;2022-11-20T06:43:11;29.08;;;12.95;;
55758;SDS011;41678;52.126;20.664;2022-11-20T06:48:31;28.00;;;11.60;;
55758;SDS011;41678;52.126;20.664;2022-11-20T06:53:51;28.58;;;11.18;;
55758;SDS011;41678;52.126;20.664;2022-11-20T06:59:12;42.67;;;15.45;;
55758;SDS011;41678;52.126;20.664;2022-11-20T07:04:31;38.17;;;15.68;;
55758;SDS011;41678;52.126;20.664;2022-11-20T07:09:51;22.75;;;11.32;;
55758;SDS011;41678;52.126;20.664;2022-11-20T07:15:11;32.83;;;13.77;;
55758;SDS011;41678;52.126;20.664;2022-11-20T07:20:30;24.20;;;10.43;;
55758;SDS011;41678;52.126;20.664;2022-11-20T07:25:50;37.60;;;13.77;;
55758;SDS011;41678;52.126;20.664;2022-11-20T07:31:09;37.33;;;11.88;;
55758;SDS011;41678;52.126;20.664;2022-11-20T07:36:29;30.75;;;13.43;;
55758;SDS011;41678;52.126;20.664;2022-11-20T07:41:48;34.60;;;11.07;;
55758;SDS011;41678;52.126;20.664;2022-11-20T07:47:08;26.85;;;12.45;;
55758;SDS011;41678;52.126;20.664;2022-11-20T07:52:28;29.73;;;12.55;;
55758;SDS011;41678;52.126;20.664;2022-11-20T07:57:53;36.78;;;12.60;;
55758;SDS011;41678;52.126;20.664;2022-11-20T08:03:14;28.40;;;12.90;;
55758;SDS011;41678;52.126;20.664;2022-11-20T08:08:33;22.17;;;10.85;;
55758;SDS011;41678;52.126;20.664;2022-11-20T08:13:53;25.80;;;13.55;;
55758;SDS011;41678;52.126;20.664;2022-11-20T08:19:31;34.03;;;14.95;;
55758;SDS011;41678;52.126;20.664;2022-11-20T08:24:51;25.30;;;11.30;;
55758;SDS011;41678;52.126;20.664;2022-11-20T08:30:11;32.83;;;10.85;;
55758;SDS011;41678;52.126;20.664;2022-11-20T08:35:34;24.48;;;12.38;;
55758;SDS011;41678;52.126;20.664;2022-11-20T08:40:59;32.78;;;15.85;;
55758;SDS011;41678;52.126;20.664;2022-11-20T08:46:39;27.25;;;13.15;;
55758;SDS011;41678;52.126;20.664;2022-11-20T08:52:00;24.35;;;10.68;;
55758;SDS011;41678;52.126;20.664;2022-11-20T08:57:19;22.40;;;13.48;;
55758;SDS011;41678;52.126;20.664;2022-11-20T09:02:38;22.85;;;11.23;;
55758;SDS011;41678;52.126;20.664;2022-11-20T09:07:59;26.45;;;11.40;;
55758;SDS011;41678;52.126;20.664;2022-11-20T09:13:19;22.15;;;10.07;;
55758;SDS011;41678;52.126;20.664;2022-11-20T09:18:39;16.50;;;11.25;;
55758;SDS011;41678;52.126;20.664;2022-11-20T09:23:59;39.50;;;15.85;;
55758;SDS011;41678;52.126;20.664;2022-11-20T09:29:19;29.35;;;14.55;;
55758;SDS011;41678;52.126;20.664;2022-11-20T09:34:38;39.50;;;13.88;;
55758;SDS011;41678;52.126;20.664;2022-11-20T09:39:58;36.35;;;14.93;;
55758;SDS011;41678;52.126;20.664;2022-11-20T09:50:56;37.50;;;16.02;;
55758;SDS011;41678;52.126;20.664;2022-11-20T09:56:22;46.95;;;16.95;;
55758;SDS011;41678;52.126;20.664;2022-11-20T10:01:42;32.33;;;14.23;;
55758;SDS011;41678;52.126;20.664;2022-11-20T10:07:15;11.30;;;7.57;;
55758;SDS011;41678;52.126;20.664;2022-11-20T10:19:06;46.92;;;21.05;;
55758;SDS011;41678;52.126;20.664;2022-11-20T10:35:34;38.30;;;14.15;;
55758;SDS011;41678;52.126;20.664;2022-11-20T10:41:01;33.28;;;15.80;;
55758;SDS011;41678;52.126;20.664;2022-11-20T10:46:44;38.22;;;16.40;;
55758;SDS011;41678;52.126;20.664;2022-11-20T11:03:33;29.83;;;12.57;;
55758;SDS011;41678;52.126;20.664;2022-11-20T11:08:53;35.33;;;14.68;;
55758;SDS011;41678;52.126;20.664;2022-11-20T11:14:17;40.90;;;13.20;;
55758;SDS011;41678;52.126;20.664;2022-11-20T11:19:37;32.45;;;12.65;;
55758;SDS011;41678;52.126;20.664;2022-11-20T11:24:57;43.38;;;18.85;;
55758;SDS011;41678;52.126;20.664;2022-11-20T11:30:17;49.25;;;15.68;;
55758;SDS011;41678;52.126;20.664;2022-11-20T11:35:44;30.90;;;13.02;;
55758;SDS011;41678;52.126;20.664;2022-11-20T11:41:06;30.08;;;13.23;;
55758;SDS011;41678;52.126;20.664;2022-11-20T11:46:32;35.30;;;13.02;;
55758;SDS011;41678;52.126;20.664;2022-11-20T11:57:43;16.50;;;8.43;;
55758;SDS011;41678;52.126;20.664;2022-11-20T12:03:33;29.77;;;12.07;;
55758;SDS011;41678;52.126;20.664;2022-11-20T12:08:57;21.92;;;9.68;;
55758;SDS011;41678;52.126;20.664;2022-11-20T12:19:56;21.30;;;10.65;;
55758;SDS011;41678;52.126;20.664;2022-11-20T12:30:54;34.85;;;11.90;;
55758;SDS011;41678;52.126;20.664;2022-11-20T12:36:30;22.90;;;9.05;;
55758;SDS011;41678;52.126;20.664;2022-11-20T13:09:48;28.42;;;12.13;;
55758;SDS011;41678;52.126;20.664;2022-11-20T13:20:51;36.50;;;12.00;;
55758;SDS011;41678;52.126;20.664;2022-11-20T13:26:16;29.00;;;11.20;;
55758;SDS011;41678;52.126;20.664;2022-11-20T13:37:37;30.58;;;13.88;;
55758;SDS011;41678;52.126;20.664;2022-11-20T13:43:08;35.97;;;12.50;;
55758;SDS011;41678;52.126;20.664;2022-11-20T13:48:43;29.45;;;13.93;;
55758;SDS011;41678;52.126;20.664;2022-11-20T14:04:59;27.25;;;10.75;;
55758;SDS011;41678;52.126;20.664;2022-11-20T14:10:25;25.60;;;11.70;;
55758;SDS011;41678;52.126;20.664;2022-11-20T14:15:48;23.45;;;10.65;;
55758;SDS011;41678;52.126;20.664;2022-11-20T14:21:28;34.78;;;15.75;;
55758;SDS011;41678;52.126;20.664;2022-11-20T14:26:49;32.53;;;12.57;;
55758;SDS011;41678;52.126;20.664;2022-11-20T14:32:10;33.10;;;14.35;;
55758;SDS011;41678;52.126;20.664;2022-11-20T14:37:32;33.65;;;13.68;;
55758;SDS011;41678;52.126;20.664;2022-11-20T14:42:56;28.38;;;13.65;;
55758;SDS011;41678;52.126;20.664;2022-11-20T14:48:16;45.63;;;16.00;;
55758;SDS011;41678;52.126;20.664;2022-11-20T14:53:36;41.97;;;14.02;;
55758;SDS011;41678;52.126;20.664;2022-11-20T14:58:56;33.47;;;14.50;;
55758;SDS011;41678;52.126;20.664;2022-11-20T15:04:17;35.17;;;14.85;;
55758;SDS011;41678;52.126;20.664;2022-11-20T15:09:37;32.45;;;14.07;;
55758;SDS011;41678;52.126;20.664;2022-11-20T15:14:58;31.52;;;12.85;;
55758;SDS011;41678;52.126;20.664;2022-11-20T15:20:18;34.47;;;14.73;;
55758;SDS011;41678;52.126;20.664;2022-11-20T15:25:39;34.13;;;14.93;;
55758;SDS011;41678;52.126;20.664;2022-11-20T15:30:59;33.85;;;14.68;;
55758;SDS011;41678;52.126;20.664;2022-11-20T15:36:19;36.20;;;14.30;;
55758;SDS011;41678;52.126;20.664;2022-11-20T15:41:39;36.10;;;14.73;;
55758;SDS011;41678;52.126;20.664;2022-11-20T15:46:59;29.17;;;13.60;;
55758;SDS011;41678;52.126;20.664;2022-11-20T15:52:18;47.60;;;17.27;;
55758;SDS011;41678;52.126;20.664;2022-11-20T15:57:38;35.28;;;16.83;;
55758;SDS011;41678;52.126;20.664;2022-11-20T16:02:57;37.47;;;15.80;;
55758;SDS011;41678;52.126;20.664;2022-11-20T16:08:17;36.58;;;17.50;;
55758;SDS011;41678;52.126;20.664;2022-11-20T16:13:37;36.55;;;16.02;;
55758;SDS011;41678;52.126;20.664;2022-11-20T16:19:16;30.80;;;15.15;;
55758;SDS011;41678;52.126;20.664;2022-11-20T16:24:37;31.80;;;14.30;;
55758;SDS011;41678;52.126;20.664;2022-11-20T16:29:57;33.15;;;12.85;;
55758;SDS011;41678;52.126;20.664;2022-11-20T16:35:17;20.85;;;11.55;;
55758;SDS011;41678;52.126;20.664;2022-11-20T16:40:36;34.05;;;14.48;;
55758;SDS011;41678;52.126;20.664;2022-11-20T16:45:56;32.80;;;12.98;;
55758;SDS011;41678;52.126;20.664;2022-11-20T16:51:16;36.90;;;14.98;;
55758;SDS011;41678;52.126;20.664;2022-11-20T16:56:35;29.08;;;12.93;;
55758;SDS011;41678;52.126;20.664;2022-11-20T17:01:56;50.30;;;18.10;;
55758;SDS011;41678;52.126;20.664;2022-11-20T17:07:15;52.00;;;21.30;;
55758;SDS011;41678;52.126;20.664;2022-11-20T17:12:35;63.63;;;18.48;;
55758;SDS011;41678;52.126;20.664;2022-11-20T17:17:54;38.60;;;17.02;;
55758;SDS011;41678;52.126;20.664;2022-11-20T17:23:14;54.83;;;16.08;;
55758;SDS011;41678;52.126;20.664;2022-11-20T17:28:34;40.13;;;16.17;;
55758;SDS011;41678;52.126;20.664;2022-11-20T17:33:55;30.03;;;14.87;;
55758;SDS011;41678;52.126;20.664;2022-11-20T17:39:15;46.97;;;16.70;;
55758;SDS011;41678;52.126;20.664;2022-11-20T17:44:35;29.17;;;12.05;;
55758;SDS011;41678;52.126;20.664;2022-11-20T17:49:55;19.40;;;9.05;;
55758;SDS011;41678;52.126;20.664;2022-11-20T17:55:15;30.20;;;14.27;;
55758;SDS011;41678;52.126;20.664;2022-11-20T18:00:35;22.98;;;12.82;;
55758;SDS011;41678;52.126;20.664;2022-11-20T18:05:54;25.80;;;14.25;;
55758;SDS011;41678;52.126;20.664;2022-11-20T18:11:18;24.38;;;10.77;;
55758;SDS011;41678;52.126;20.664;2022-11-20T18:16:44;23.77;;;12.60;;
55758;SDS011;41678;52.126;20.664;2022-11-20T18:22:06;40.40;;;16.77;;
55758;SDS011;41678;52.126;20.664;2022-11-20T18:27:26;21.58;;;10.30;;
55758;SDS011;41678;52.126;20.664;2022-11-20T18:32:46;35.28;;;13.18;;
55758;SDS011;41678;52.126;20.664;2022-11-20T18:38:06;27.90;;;12.43;;
55758;SDS011;41678;52.126;20.664;2022-11-20T18:43:25;35.35;;;15.30;;
55758;SDS011;41678;52.126;20.664;2022-11-20T18:49:03;22.33;;;11.07;;
55758;SDS011;41678;52.126;20.664;2022-11-20T18:54:23;33.33;;;15.52;;
55758;SDS011;41678;52.126;20.664;2022-11-20T18:59:42;41.88;;;15.02;;
55758;SDS011;41678;52.126;20.664;2022-11-20T19:05:02;38.35;;;14.18;;
55758;SDS011;41678;52.126;20.664;2022-11-20T19:10:22;40.40;;;15.95;;
55758;SDS011;41678;52.126;20.664;2022-11-20T19:15:42;29.23;;;13.57;;
55758;SDS011;41678;52.126;20.664;2022-11-20T19:26:33;33.63;;;12.60;;
55758;SDS011;41678;52.126;20.664;2022-11-20T19:31:55;31.23;;;13.05;;
55758;SDS011;41678;52.126;20.664;2022-11-20T19:37:15;26.60;;;13.48;;
55758;SDS011;41678;52.126;20.664;2022-11-20T19:42:35;28.98;;;15.75;;
55758;SDS011;41678;52.126;20.664;2022-11-20T19:47:54;36.88;;;15.35;;
55758;SDS011;41678;52.126;20.664;2022-11-20T19:53:16;31.40;;;15.35;;
55758;SDS011;41678;52.126;20.664;2022-11-20T19:58:37;39.65;;;16.33;;
55758;SDS011;41678;52.126;20.664;2022-11-20T20:03:57;35.80;;;16.83;;
55758;SDS011;41678;52.126;20.664;2022-11-20T20:09:23;44.00;;;19.50;;
55758;SDS011;41678;52.126;20.664;2022-11-20T20:14:45;37.58;;;17.58;;
55758;SDS011;41678;52.126;20.664;2022-11-20T20:20:04;50.90;;;17.75;;
55758;SDS011;41678;52.126;20.664;2022-11-20T20:25:25;57.75;;;20.23;;
55758;SDS011;41678;52.126;20.664;2022-11-20T20:30:44;44.40;;;21.55;;
55758;SDS011;41678;52.126;20.664;2022-11-20T20:36:04;40.70;;;17.83;;
55758;SDS011;41678;52.126;20.664;2022-11-20T20:41:25;65.23;;;21.00;;
55758;SDS011;41678;52.126;20.664;2022-11-20T20:46:44;49.75;;;19.05;;
55758;SDS011;41678;52.126;20.664;2022-11-20T20:52:04;45.85;;;17.42;;
55758;SDS011;41678;52.126;20.664;2022-11-20T20:57:26;40.50;;;18.13;;
55758;SDS011;41678;52.126;20.664;2022-11-20T21:02:46;46.25;;;19.33;;
55758;SDS011;41678;52.126;20.664;2022-11-20T21:08:06;65.65;;;19.08;;
55758;SDS011;41678;52.126;20.664;2022-11-20T21:13:41;44.28;;;18.52;;
55758;SDS011;41678;52.126;20.664;2022-11-20T21:19:02;38.85;;;15.95;;
55758;SDS011;41678;52.126;20.664;2022-11-20T21:24:21;54.53;;;19.80;;
55758;SDS011;41678;52.126;20.664;2022-11-20T21:29:41;58.38;;;19.33;;
55758;SDS011;41678;52.126;20.664;2022-11-20T21:35:01;53.95;;;23.38;;
55758;SDS011;41678;52.126;20.664;2022-11-20T21:40:21;55.28;;;19.83;;
55758;SDS011;41678;52.126;20.664;2022-11-20T21:45:40;47.60;;;19.00;;
55758;SDS011;41678;52.126;20.664;2022-11-20T21:51:04;75.32;;;23.10;;
55758;SDS011;41678;52.126;20.664;2022-11-20T21:56:25;42.88;;;19.90;;
55758;SDS011;41678;52.126;20.664;2022-11-20T22:01:45;50.22;;;21.08;;
55758;SDS011;41678;52.126;20.664;2022-11-20T22:07:05;48.05;;;19.40;;
55758;SDS011;41678;52.126;20.664;2022-11-20T22:12:24;61.05;;;19.05;;
55758;SDS011;41678;52.126;20.664;2022-11-20T22:17:44;44.45;;;19.52;;
55758;SDS011;41678;52.126;20.664;2022-11-20T22:23:23;60.20;;;22.17;;
55758;SDS011;41678;52.126;20.664;2022-11-20T22:28:45;42.88;;;20.02;;
55758;SDS011;41678;52.126;20.664;2022-11-20T22:34:08;35.00;;;17.58;;
55758;SDS011;41678;52.126;20.664;2022-11-20T22:39:29;41.58;;;20.10;;
55758;SDS011;41678;52.126;20.664;2022-11-20T22:44:49;28.52;;;16.33;;
55758;SDS011;41678;52.126;20.664;2022-11-20T22:50:08;49.97;;;18.52;;
55758;SDS011;41678;52.126;20.664;2022-11-20T22:55:28;50.83;;;18.67;;
55758;SDS011;41678;52.126;20.664;2022-11-20T23:00:50;33.97;;;15.75;;
55758;SDS011;41678;52.126;20.664;2022-11-20T23:06:10;70.05;;;21.50;;
55758;SDS011;41678;52.126;20.664;2022-11-20T23:11:31;45.90;;;20.42;;
55758;SDS011;41678;52.126;20.664;2022-11-20T23:16:51;46.08;;;17.80;;
55758;SDS011;41678;52.126;20.664;2022-11-20T23:22:11;40.58;;;14.95;;
55758;SDS011;41678;52.126;20.664;2022-11-20T23:27:30;52.35;;;19.48;;
55758;SDS011;41678;52.126;20.664;2022-11-20T23:32:50;36.90;;;17.00;;
55758;SDS011;41678;52.126;20.664;2022-11-20T23:38:09;35.47;;;17.33;;
55758;SDS011;41678;52.126;20.664;2022-11-20T23:43:30;39.80;;;19.20;;
55758;SDS011;41678;52.126;20.664;2022-11-20T23:48:49;57.13;;;22.75;;
55758;SDS011;41678;52.126;20.664;2022-11-20T23:54:09;40.38;;;20.35;;
55758;SDS011;41678;52.126;20.664;2022-11-20T23:59:29;48.17;;;18.58;;
